Meknes, Morocco
Current Conditions -  °F | °C
As of 11:00 AM on Saturday 29 Nov 2014 (Local Time) from GMFM Reporting Station
Scattered Clouds Scattered Clouds  
Wind Chill: 13°   Ceiling: Unl
Heat Index: 13°   Visibility: 6mi
Dew Point:   Wind: 12mph
Humidity: 58%   Direction: 220°SW
Pressure: 29.35"   Gusts: NA
Location:  33.9°N, 5.56°W
Report Text: GMFM 291000Z 22010KT 9999 SCT020 SCT100 13/05 Q0994 NOSIG
Loading
Personal Weather Stations






























Interactive Weather Map New forecast layout! Learn more

10-Day Weather Forecast

Advertisements
Track Severe Weather on mobile